Time;durP1;ratioP1;P1;durP2;ratioP2;P2;SDS_P1;SDS_P2;PMS_P1;PMS_P2;Temp;Humidity;BMP_temperature;BMP_pressure;BME280_temperature;BME280_humidity;BME280_pressure;Samples;Min_cycle;Max_cycle;Signal;HPM_P1;HPM_P2
2020/12/16 00:01:18;;;;;;;52.00;28.97;;;;;5.70;100954.00;;;;10480778;28;20718;-77
2020/12/16 00:06:20;;;;;;;64.07;25.90;;;;;5.70;100954.00;;;;10486055;28;20601;-76
2020/12/16 00:11:21;;;;;;;67.03;28.37;;;;;5.80;100962.00;;;;10482667;28;20222;-77
2020/12/16 00:16:23;;;;;;;55.13;26.23;;;;;5.90;100973.00;;;;10447346;28;20691;-77
2020/12/16 00:21:24;;;;;;;67.10;26.30;;;;;6.00;100962.00;;;;10456734;28;20201;-77
2020/12/16 00:26:26;;;;;;;55.53;23.87;;;;;6.10;100945.00;;;;10476026;28;20246;-77
2020/12/16 00:31:27;;;;;;;59.37;25.30;;;;;6.20;100951.00;;;;10448983;28;20213;-77
2020/12/16 00:36:29;;;;;;;69.53;26.97;;;;;6.20;100964.00;;;;10447849;28;20194;-77
2020/12/16 00:41:31;;;;;;;75.33;27.17;;;;;6.40;100976.00;;;;10443697;28;20228;-77
2020/12/16 00:46:33;;;;;;;72.77;27.23;;;;;6.40;100966.00;;;;10501198;28;20299;-77
2020/12/16 00:51:34;;;;;;;73.03;26.73;;;;;6.50;100962.00;;;;10469713;28;20217;-77
2020/12/16 00:56:44;;;;;;;72.87;26.90;;;;;6.60;100958.00;;;;10434202;28;20197;-76
2020/12/16 01:01:46;;;;;;;81.80;27.83;;;;;6.60;100957.00;;;;10412837;28;20592;-77
2020/12/16 01:06:47;;;;;;;77.20;26.50;;;;;6.60;100949.00;;;;10466070;28;20786;-77
2020/12/16 01:11:51;;;;;;;75.03;27.83;;;;;6.70;100938.00;;;;10439171;28;20221;-77
2020/12/16 01:16:53;;;;;;;77.33;28.97;;;;;6.70;100943.00;;;;10463348;28;20193;-77
2020/12/16 01:21:59;;;;;;;91.00;31.33;;;;;6.80;100955.00;;;;10440851;28;20193;-77
2020/12/16 01:27:02;;;;;;;84.10;30.53;;;;;6.80;100948.00;;;;10445675;28;20606;-77
2020/12/16 01:32:08;;;;;;;92.63;33.00;;;;;6.90;100944.00;;;;10450393;28;20240;-77
2020/12/16 01:37:11;;;;;;;91.93;33.20;;;;;6.90;100945.00;;;;10435766;28;20644;-77
2020/12/16 01:42:21;;;;;;;101.63;33.27;;;;;6.90;100954.00;;;;10399731;28;20592;-77
2020/12/16 01:47:23;;;;;;;95.73;32.27;;;;;6.90;100955.00;;;;10477453;28;20247;-77
2020/12/16 01:52:36;;;;;;;106.90;34.50;;;;;6.90;100968.00;;;;10448061;28;20214;-77
2020/12/16 01:57:40;;;;;;;89.40;32.30;;;;;6.90;100967.00;;;;10458626;28;20205;-77
2020/12/16 02:02:51;;;;;;;92.17;32.93;;;;;6.80;100968.00;;;;10482298;28;20224;-77
2020/12/16 02:08:28;;;;;;;78.27;29.63;;;;;6.50;100966.00;;;;10440916;28;20237;-77
2020/12/16 02:13:32;;;;;;;105.47;33.37;;;;;6.40;100968.00;;;;10487910;28;20216;-77
2020/12/16 02:18:33;;;;;;;118.37;34.80;;;;;6.20;100972.00;;;;10455791;28;20236;-77
2020/12/16 02:23:44;;;;;;;104.37;32.47;;;;;6.10;100986.00;;;;10479949;28;20721;-77
2020/12/16 02:28:50;;;;;;;124.73;32.10;;;;;6.00;100966.00;;;;10463311;28;20778;-77
2020/12/16 02:33:52;;;;;;;208.33;38.33;;;;;6.00;100984.00;;;;10403692;28;20628;-77
2020/12/16 02:39:02;;;;;;;152.33;34.80;;;;;5.90;100984.00;;;;10435379;28;20194;-77
2020/12/16 02:44:12;;;;;;;433.07;56.03;;;;;5.80;100991.00;;;;10468128;28;20219;-77
2020/12/16 02:49:26;;;;;;;166.80;34.63;;;;;5.60;100991.00;;;;10427460;28;20603;-77
2020/12/16 02:54:27;;;;;;;74.23;27.90;;;;;5.40;100986.00;;;;10464199;28;20313;-77
2020/12/16 02:59:58;;;;;;;68.87;26.53;;;;;5.30;100987.00;;;;10461113;28;20656;-77
2020/12/16 03:05:19;;;;;;;110.53;26.77;;;;;5.20;100977.00;;;;10475126;28;20219;-77
2020/12/16 03:10:21;;;;;;;293.73;37.77;;;;;5.10;100983.00;;;;10439852;28;20204;-77
2020/12/16 03:15:23;;;;;;;76.70;27.30;;;;;5.00;100982.00;;;;10483645;28;20213;-77
2020/12/16 03:20:26;;;;;;;56.37;24.07;;;;;4.90;100991.00;;;;10455550;28;20201;-77
2020/12/16 03:25:28;;;;;;;68.30;26.50;;;;;4.90;100982.00;;;;10442119;28;20251;-77
2020/12/16 03:30:37;;;;;;;68.80;27.37;;;;;5.00;100979.00;;;;10448503;28;20193;-77
2020/12/16 03:35:57;;;;;;;72.90;28.47;;;;;5.00;100973.00;;;;10481088;28;20198;-77
2020/12/16 03:40:58;;;;;;;60.97;24.73;;;;;4.80;100964.00;;;;10437568;28;20543;-77
2020/12/16 03:46:11;;;;;;;67.60;25.10;;;;;4.80;100968.00;;;;10442262;28;20304;-77
2020/12/16 03:51:15;;;;;;;66.40;26.67;;;;;4.80;100963.00;;;;10454288;28;20205;-77
2020/12/16 03:56:23;;;;;;;61.63;25.40;;;;;4.70;100970.00;;;;10518917;28;20584;-77
2020/12/16 04:01:44;;;;;;;57.43;24.93;;;;;4.60;100966.00;;;;10455131;28;20245;-77
2020/12/16 04:06:45;;;;;;;59.07;25.90;;;;;4.50;100970.00;;;;10472886;28;20608;-77
2020/12/16 04:11:47;;;;;;;73.60;25.63;;;;;4.40;100970.00;;;;10484211;28;20209;-77
2020/12/16 04:16:58;;;;;;;55.00;24.43;;;;;4.40;100964.00;;;;10424982;28;20744;-77
2020/12/16 04:22:12;;;;;;;57.57;23.60;;;;;4.30;100971.00;;;;10414200;28;20553;-77
2020/12/16 04:27:30;;;;;;;62.00;26.03;;;;;4.20;100971.00;;;;10418010;28;20222;-77
2020/12/16 04:32:32;;;;;;;63.33;26.60;;;;;4.30;100970.00;;;;10439215;28;20218;-77
2020/12/16 04:37:33;;;;;;;58.17;25.57;;;;;4.30;100969.00;;;;10427549;28;20267;-77
2020/12/16 04:42:36;;;;;;;70.47;29.33;;;;;4.50;100974.00;;;;10431726;28;20619;-77
2020/12/16 04:47:38;;;;;;;68.63;26.80;;;;;4.60;100974.00;;;;10501412;28;20223;-77
2020/12/16 04:52:49;;;;;;;65.07;26.17;;;;;4.70;100979.00;;;;10491500;28;20270;-77
2020/12/16 04:57:55;;;;;;;69.87;26.70;;;;;4.60;100966.00;;;;10478676;28;20196;-77
2020/12/16 05:03:06;;;;;;;61.57;25.87;;;;;4.50;100966.00;;;;10459359;28;20229;-77
2020/12/16 05:08:27;;;;;;;49.80;23.27;;;;;4.30;100969.00;;;;10434125;28;20446;-77
2020/12/16 05:13:29;;;;;;;49.13;21.77;;;;;4.20;100976.00;;;;10424457;28;20225;-77
2020/12/16 05:18:31;;;;;;;44.10;20.30;;;;;4.10;100981.00;;;;10479197;28;20189;-77
2020/12/16 05:23:35;;;;;;;50.83;21.17;;;;;4.30;100991.00;;;;10486279;28;20202;-77
2020/12/16 05:28:46;;;;;;;47.83;22.23;;;;;4.50;100998.00;;;;10445134;28;20694;-77
2020/12/16 05:33:49;;;;;;;45.33;21.60;;;;;4.50;100996.00;;;;10468304;28;20676;-77
2020/12/16 05:38:54;;;;;;;48.20;21.13;;;;;4.70;101001.00;;;;10472374;28;20201;-77
2020/12/16 05:44:18;;;;;;;58.00;22.20;;;;;5.00;100997.00;;;;10473541;28;20291;-76
2020/12/16 05:49:30;;;;;;;43.13;20.13;;;;;5.30;100990.00;;;;10441718;28;20821;-77
2020/12/16 05:54:37;;;;;;;40.53;18.27;;;;;5.60;100980.00;;;;10429083;28;20214;-77
2020/12/16 05:59:39;;;;;;;38.87;18.37;;;;;5.60;100988.00;;;;10415144;28;20198;-77
2020/12/16 06:04:41;;;;;;;33.63;15.07;;;;;5.50;100975.00;;;;10480624;28;20197;-77
2020/12/16 06:09:42;;;;;;;33.20;15.30;;;;;5.50;100977.00;;;;10443972;28;20201;-77
2020/12/16 06:14:50;;;;;;;27.27;16.10;;;;;5.30;100984.00;;;;10451620;28;20618;-77
2020/12/16 06:19:54;;;;;;;34.50;17.70;;;;;5.20;100981.00;;;;10472606;28;20198;-77
2020/12/16 06:24:58;;;;;;;39.17;16.73;;;;;5.20;100973.00;;;;10478836;28;20201;-77
2020/12/16 06:30:01;;;;;;;31.97;16.73;;;;;5.10;100979.00;;;;10431609;28;20202;-77
2020/12/16 06:35:04;;;;;;;28.37;15.63;;;;;5.00;100975.00;;;;10439471;28;20568;-77
2020/12/16 06:40:06;;;;;;;34.77;16.47;;;;;4.90;100983.00;;;;10445937;28;20679;-77
2020/12/16 06:45:15;;;;;;;33.27;16.80;;;;;4.70;100978.00;;;;10470531;28;20251;-77
2020/12/16 06:50:19;;;;;;;28.60;15.27;;;;;4.60;100985.00;;;;10456510;28;20194;-77
2020/12/16 06:55:20;;;;;;;23.00;13.20;;;;;4.50;100989.00;;;;10503041;28;20268;-77
2020/12/16 07:00:23;;;;;;;29.70;15.60;;;;;4.40;100988.00;;;;10460306;28;20194;-77
2020/12/16 07:05:41;;;;;;;27.80;15.00;;;;;4.40;100995.00;;;;10425479;28;20665;-77
2020/12/16 07:10:44;;;;;;;36.57;15.77;;;;;4.20;101002.00;;;;10448695;28;20201;-77
2020/12/16 07:15:48;;;;;;;30.90;15.13;;;;;4.00;100997.00;;;;10454199;28;20228;-77
2020/12/16 07:20:50;;;;;;;36.03;19.00;;;;;4.00;100993.00;;;;10498543;28;20202;-77
2020/12/16 07:25:51;;;;;;;34.53;18.27;;;;;3.90;100989.00;;;;10460461;28;20197;-77
2020/12/16 07:30:53;;;;;;;37.83;18.40;;;;;3.80;100974.00;;;;10453142;28;20198;-75
2020/12/16 07:35:58;;;;;;;33.33;17.50;;;;;3.70;100980.00;;;;10428014;28;20248;-76
2020/12/16 07:41:00;;;;;;;33.33;18.13;;;;;3.70;100988.00;;;;10489908;28;20689;-76
2020/12/16 07:46:03;;;;;;;48.03;19.43;;;;;3.70;100989.00;;;;10465787;28;20716;-77
2020/12/16 07:51:07;;;;;;;31.00;17.70;;;;;3.60;100996.00;;;;10455715;28;20193;-76
2020/12/16 07:56:09;;;;;;;39.37;20.73;;;;;3.60;101006.00;;;;10486035;28;20228;-77
2020/12/16 08:01:13;;;;;;;42.03;20.07;;;;;4.00;100991.00;;;;10478629;28;20556;-77
2020/12/16 08:06:15;;;;;;;54.43;23.00;;;;;4.30;100985.00;;;;10493144;28;20781;-77
2020/12/16 08:11:19;;;;;;;44.40;21.70;;;;;4.50;100995.00;;;;10483099;28;20205;-76
2020/12/16 08:16:21;;;;;;;39.07;21.07;;;;;4.50;100984.00;;;;10438357;28;20208;-77
2020/12/16 08:21:23;;;;;;;41.67;22.97;;;;;4.70;100979.00;;;;10379692;28;20772;-76
2020/12/16 08:26:26;;;;;;;42.87;21.17;;;;;4.80;100973.00;;;;10394849;28;20198;-76
2020/12/16 08:31:31;;;;;;;33.37;18.17;;;;;4.70;100968.00;;;;10362587;28;21181;-76
2020/12/16 08:36:34;;;;;;;32.43;17.13;;;;;4.70;100962.00;;;;10406761;28;20201;-77
2020/12/16 08:41:36;;;;;;;29.73;15.57;;;;;4.80;100959.00;;;;10404069;28;20672;-77
2020/12/16 08:46:41;;;;;;;36.63;18.83;;;;;5.00;100967.00;;;;10472597;28;20601;-76
2020/12/16 08:51:44;;;;;;;31.43;16.77;;;;;5.10;100981.00;;;;10457434;28;20263;-77
2020/12/16 08:56:57;;;;;;;31.70;16.50;;;;;5.50;100990.00;;;;10478334;28;20182;-77
2020/12/16 09:02:01;;;;;;;25.60;15.60;;;;;6.10;100985.00;;;;10474671;28;20605;-77
2020/12/16 09:07:07;;;;;;;30.50;16.77;;;;;6.80;100992.00;;;;10490658;28;20278;-77
2020/12/16 09:12:13;;;;;;;21.73;12.47;;;;;7.30;100967.00;;;;10453598;28;20206;-77
2020/12/16 09:17:15;;;;;;;13.80;8.93;;;;;7.70;100966.00;;;;10463458;28;20198;-77
2020/12/16 09:22:28;;;;;;;10.87;7.20;;;;;8.10;100969.00;;;;10509040;28;20193;-78
2020/12/16 09:27:30;;;;;;;8.33;6.43;;;;;8.40;100964.00;;;;10504180;28;20265;-77
2020/12/16 09:32:31;;;;;;;11.23;7.87;;;;;8.70;100970.00;;;;10523104;28;20209;-77
2020/12/16 09:37:34;;;;;;;11.53;7.97;;;;;8.90;100973.00;;;;10499289;28;20189;-77
2020/12/16 09:42:36;;;;;;;14.37;9.60;;;;;9.10;100973.00;;;;10431755;28;20218;-77
2020/12/16 09:47:45;;;;;;;14.07;8.40;;;;;9.40;100965.00;;;;10428586;28;20197;-77
2020/12/16 09:52:46;;;;;;;9.80;8.27;;;;;9.50;100954.00;;;;10426140;28;20855;-77
2020/12/16 09:57:58;;;;;;;9.53;7.43;;;;;9.60;100955.00;;;;10453372;28;20256;-77
2020/12/16 10:03:05;;;;;;;8.83;6.90;;;;;9.80;100955.00;;;;10431730;28;20751;-78
2020/12/16 10:08:11;;;;;;;7.60;6.10;;;;;10.10;100948.00;;;;10455557;28;20255;-78
2020/12/16 10:13:14;;;;;;;7.40;4.30;;;;;10.30;100949.00;;;;10424909;28;20197;-77
2020/12/16 10:18:16;;;;;;;5.10;4.60;;;;;10.40;100948.00;;;;10468835;28;20220;-78
2020/12/16 10:23:17;;;;;;;4.60;3.70;;;;;10.60;100935.00;;;;10457455;28;20194;-78
2020/12/16 10:28:21;;;;;;;5.90;4.07;;;;;10.70;100919.00;;;;10418824;28;20201;-77
2020/12/16 10:33:22;;;;;;;4.20;3.77;;;;;10.90;100915.00;;;;10452375;28;20201;-77
2020/12/16 10:38:24;;;;;;;3.67;3.20;;;;;11.10;100916.00;;;;10471525;28;20201;-77
2020/12/16 10:43:25;;;;;;;4.87;3.70;;;;;11.40;100914.00;;;;10467760;28;20746;-78
2020/12/16 10:48:26;;;;;;;7.57;3.70;;;;;11.60;100916.00;;;;10465165;28;20193;-77
2020/12/16 10:53:28;;;;;;;4.60;3.60;;;;;11.70;100902.00;;;;10434711;28;20406;-78
2020/12/16 10:58:30;;;;;;;4.23;3.40;;;;;11.80;100899.00;;;;10491022;28;20652;-78
2020/12/16 11:03:31;;;;;;;5.00;3.70;;;;;11.90;100891.00;;;;10442102;28;20198;-77
2020/12/16 11:08:33;;;;;;;4.10;3.40;;;;;12.10;100890.00;;;;10474948;28;20552;-78
2020/12/16 11:13:34;;;;;;;4.70;3.90;;;;;12.00;100902.00;;;;10451917;28;20205;-78
2020/12/16 11:18:36;;;;;;;4.10;3.57;;;;;11.80;100886.00;;;;10477378;28;20212;-78
2020/12/16 11:23:44;;;;;;;6.33;3.67;;;;;11.60;100882.00;;;;10433012;28;20316;-77
2020/12/16 11:28:45;;;;;;;5.33;4.00;;;;;11.70;100880.00;;;;10537425;28;20192;-77
2020/12/16 11:33:47;;;;;;;4.27;3.87;;;;;11.80;100880.00;;;;10497279;28;20212;-78
2020/12/16 11:38:48;;;;;;;5.37;4.20;;;;;11.80;100884.00;;;;10485063;28;20209;-77
2020/12/16 11:43:49;;;;;;;4.10;3.70;;;;;11.70;100871.00;;;;10469167;28;20224;-77
2020/12/16 11:48:51;;;;;;;5.60;4.50;;;;;11.70;100879.00;;;;10482510;28;20197;-78
2020/12/16 11:53:53;;;;;;;5.53;4.43;;;;;11.70;100879.00;;;;10469110;28;20218;-77
2020/12/16 11:58:54;;;;;;;5.73;4.30;;;;;11.60;100876.00;;;;10455829;28;20556;-78
2020/12/16 12:03:56;;;;;;;7.90;5.00;;;;;11.70;100867.00;;;;10447765;28;20193;-77
2020/12/16 12:08:57;;;;;;;5.40;4.20;;;;;11.80;100865.00;;;;10461135;28;20208;-77
2020/12/16 12:13:59;;;;;;;5.83;4.33;;;;;11.90;100853.00;;;;10444999;28;20704;-77
2020/12/16 12:19:00;;;;;;;4.93;4.27;;;;;12.00;100849.00;;;;10470837;28;20186;-77
2020/12/16 12:24:02;;;;;;;4.80;3.83;;;;;12.10;100849.00;;;;10437358;28;20281;-79
2020/12/16 12:29:03;;;;;;;4.27;3.50;;;;;12.00;100845.00;;;;10462070;28;20204;-79
2020/12/16 12:34:05;;;;;;;5.37;3.87;;;;;11.90;100848.00;;;;10457990;28;20247;-78
2020/12/16 12:39:06;;;;;;;5.83;3.40;;;;;12.00;100858.00;;;;10452381;28;20561;-79
2020/12/16 12:44:09;;;;;;;6.53;3.87;;;;;11.90;100852.00;;;;10480129;28;20264;-80
2020/12/16 12:49:11;;;;;;;3.70;3.30;;;;;11.90;100836.00;;;;10426302;28;20217;-78
2020/12/16 12:54:12;;;;;;;5.97;3.50;;;;;12.10;100832.00;;;;10461526;28;20243;-77
2020/12/16 12:59:13;;;;;;;4.73;3.80;;;;;12.30;100833.00;;;;10458794;28;20233;-77
2020/12/16 13:04:15;;;;;;;5.67;3.53;;;;;12.60;100830.00;;;;10499623;28;20194;-77
2020/12/16 13:09:17;;;;;;;5.23;3.57;;;;;12.90;100834.00;;;;10451069;28;20713;-79
2020/12/16 13:14:18;;;;;;;4.57;3.47;;;;;13.00;100836.00;;;;10449052;28;20298;-79
2020/12/16 13:19:20;;;;;;;3.57;3.03;;;;;12.90;100838.00;;;;10487178;28;20197;-78
2020/12/16 13:24:24;;;;;;;4.33;3.23;;;;;12.70;100833.00;;;;10439964;28;20194;-77
2020/12/16 13:29:27;;;;;;;3.70;3.07;;;;;12.40;100824.00;;;;10450444;28;20198;-78
2020/12/16 13:34:28;;;;;;;3.67;2.90;;;;;12.10;100825.00;;;;10450828;28;20684;-79
2020/12/16 13:39:29;;;;;;;4.27;3.00;;;;;11.80;100832.00;;;;10473253;28;20204;-78
2020/12/16 13:44:31;;;;;;;3.57;3.10;;;;;11.60;100837.00;;;;10457772;28;20231;-79
2020/12/16 13:49:32;;;;;;;3.53;2.53;;;;;11.40;100844.00;;;;10512302;28;20204;-78
2020/12/16 13:54:34;;;;;;;2.77;2.53;;;;;11.30;100832.00;;;;10473177;28;20209;-79
2020/12/16 13:59:50;;;;;;;4.33;3.00;;;;;11.30;100853.00;;;;10427674;28;20209;-78
2020/12/16 14:04:52;;;;;;;3.73;2.70;;;;;11.30;100847.00;;;;10459080;28;20193;-78
2020/12/16 14:09:54;;;;;;;4.27;2.13;;;;;11.50;100834.00;;;;10443464;28;20202;-77
2020/12/16 14:14:55;;;;;;;3.77;2.33;;;;;11.50;100830.00;;;;10439358;28;20255;-78
2020/12/16 14:19:56;;;;;;;5.93;2.50;;;;;11.50;100838.00;;;;10448826;28;20214;-77
2020/12/16 14:24:59;;;;;;;3.33;2.10;;;;;11.40;100838.00;;;;10399948;28;20209;-78
2020/12/16 14:30:06;;;;;;;2.20;1.87;;;;;11.40;100828.00;;;;10382746;28;20207;-78
2020/12/16 14:35:08;;;;;;;3.10;2.10;;;;;11.30;100821.00;;;;10381041;28;20225;-77
2020/12/16 14:40:09;;;;;;;1.90;1.60;;;;;11.30;100821.00;;;;10407699;28;20281;-77
2020/12/16 14:45:11;;;;;;;3.27;2.00;;;;;11.20;100833.00;;;;10360245;28;20253;-76
2020/12/16 14:50:12;;;;;;;1.83;1.70;;;;;11.00;100834.00;;;;10375040;28;20724;-77
2020/12/16 14:55:18;;;;;;;2.47;2.00;;;;;11.00;100825.00;;;;10420176;28;20221;-77
2020/12/16 15:00:20;;;;;;;2.10;1.90;;;;;10.90;100835.00;;;;10394005;28;20190;-76
2020/12/16 15:05:21;;;;;;;2.83;2.60;;;;;10.80;100844.00;;;;10397925;28;20262;-76
2020/12/16 15:10:24;;;;;;;2.23;2.03;;;;;10.70;100845.00;;;;10396681;28;20304;-76
2020/12/16 15:15:25;;;;;;;2.50;2.20;;;;;10.70;100844.00;;;;10424932;28;20253;-76
2020/12/16 15:20:28;;;;;;;5.00;4.10;;;;;10.60;100844.00;;;;10492501;28;20192;-77
2020/12/16 15:25:30;;;;;;;2.87;2.33;;;;;10.50;100849.00;;;;10436619;28;20202;-76
2020/12/16 15:30:31;;;;;;;4.83;2.60;;;;;10.50;100862.00;;;;10412841;28;20226;-77
2020/12/16 15:35:32;;;;;;;3.80;2.43;;;;;10.40;100866.00;;;;10428940;28;20336;-76
2020/12/16 15:40:35;;;;;;;2.20;2.00;;;;;10.40;100859.00;;;;10431663;28;20803;-77
2020/12/16 15:45:36;;;;;;;4.73;2.30;;;;;10.30;100857.00;;;;10390838;28;20226;-77
2020/12/16 15:50:38;;;;;;;2.80;2.10;;;;;10.20;100851.00;;;;10492135;28;20255;-77
2020/12/16 15:55:39;;;;;;;4.00;1.87;;;;;10.10;100856.00;;;;10375278;28;20205;-77
2020/12/16 16:00:41;;;;;;;2.77;2.00;;;;;10.10;100844.00;;;;10394852;28;20260;-77
2020/12/16 16:05:42;;;;;;;2.47;2.23;;;;;10.00;100846.00;;;;10461919;28;20189;-77
2020/12/16 16:10:43;;;;;;;3.30;2.57;;;;;9.90;100850.00;;;;10453233;28;20198;-77
2020/12/16 16:15:44;;;;;;;4.77;2.80;;;;;9.90;100835.00;;;;10454957;28;20218;-77
2020/12/16 16:20:46;;;;;;;3.40;2.03;;;;;9.80;100838.00;;;;10387879;28;20212;-77
2020/12/16 16:25:52;;;;;;;3.93;2.37;;;;;9.80;100838.00;;;;10433283;28;20186;-77
2020/12/16 16:30:53;;;;;;;2.63;2.13;;;;;9.80;100833.00;;;;10447358;28;20207;-76
2020/12/16 16:35:54;;;;;;;3.80;2.63;;;;;9.80;100837.00;;;;10448541;28;20209;-76
2020/12/16 16:40:56;;;;;;;5.20;2.70;;;;;9.80;100826.00;;;;10481451;28;20587;-76
2020/12/16 16:45:59;;;;;;;3.57;2.67;;;;;9.70;100825.00;;;;10464493;28;20572;-77
2020/12/16 16:51:01;;;;;;;3.60;2.40;;;;;9.70;100829.00;;;;10498119;28;20197;-77
2020/12/16 16:56:02;;;;;;;3.13;2.77;;;;;9.60;100814.00;;;;10473398;28;20265;-77
2020/12/16 17:01:04;;;;;;;3.60;3.07;;;;;9.40;100804.00;;;;10500457;28;20559;-77
2020/12/16 17:06:06;;;;;;;3.73;3.20;;;;;9.40;100799.00;;;;10470609;28;20280;-77
2020/12/16 17:11:07;;;;;;;4.93;3.50;;;;;9.30;100793.00;;;;10440334;28;20197;-77
2020/12/16 17:16:09;;;;;;;4.20;3.80;;;;;9.30;100787.00;;;;10411378;28;20397;-77
2020/12/16 17:21:15;;;;;;;5.17;3.83;;;;;9.30;100773.00;;;;10374802;28;20201;-77
2020/12/16 17:26:29;;;;;;;5.23;3.70;;;;;9.30;100773.00;;;;10374881;28;20755;-76
2020/12/16 17:31:33;;;;;;;5.70;4.10;;;;;9.40;100768.00;;;;10445375;28;20285;-77
2020/12/16 17:36:36;;;;;;;5.07;4.30;;;;;9.40;100772.00;;;;10477804;28;20812;-77
2020/12/16 17:41:37;;;;;;;4.47;3.87;;;;;9.40;100767.00;;;;10478568;28;20518;-77
2020/12/16 17:46:40;;;;;;;5.40;3.67;;;;;9.50;100767.00;;;;10502901;28;20189;-76
2020/12/16 17:51:42;;;;;;;4.53;4.13;;;;;9.50;100756.00;;;;10482933;28;20227;-77
2020/12/16 17:56:44;;;;;;;5.30;3.83;;;;;9.60;100762.00;;;;10441899;28;20697;-77
2020/12/16 18:01:45;;;;;;;5.07;4.07;;;;;9.60;100756.00;;;;10396660;28;20836;-76
2020/12/16 18:06:47;;;;;;;5.27;4.13;;;;;9.60;100755.00;;;;10397434;28;20198;-78
2020/12/16 18:11:48;;;;;;;4.50;4.10;;;;;9.60;100748.00;;;;10388447;28;20202;-78
2020/12/16 18:16:50;;;;;;;5.10;4.27;;;;;9.60;100740.00;;;;10409438;28;20228;-78
2020/12/16 18:21:51;;;;;;;5.80;3.97;;;;;9.60;100737.00;;;;10459781;28;20205;-78
2020/12/16 18:26:53;;;;;;;5.60;3.50;;;;;9.60;100748.00;;;;10463573;28;20647;-78
2020/12/16 18:31:55;;;;;;;4.13;3.73;;;;;9.70;100748.00;;;;10487243;28;20231;-78
2020/12/16 18:36:57;;;;;;;4.77;3.83;;;;;9.70;100749.00;;;;10469931;28;20214;-79
2020/12/16 18:41:59;;;;;;;5.13;4.30;;;;;9.70;100768.00;;;;10398788;28;20226;-78
2020/12/16 18:47:00;;;;;;;4.57;4.00;;;;;9.70;100759.00;;;;10417959;28;20206;-78
2020/12/16 18:52:02;;;;;;;5.87;3.90;;;;;9.70;100769.00;;;;10460620;28;20193;-79
2020/12/16 18:57:07;;;;;;;4.00;3.60;;;;;9.70;100767.00;;;;10462229;28;20201;-80
2020/12/16 19:02:16;;;;;;;5.33;3.97;;;;;9.70;100766.00;;;;10440073;28;20210;-78
2020/12/16 19:07:17;;;;;;;4.97;4.17;;;;;9.70;100757.00;;;;10395249;28;20202;-79
2020/12/16 19:12:19;;;;;;;4.40;4.00;;;;;9.70;100738.00;;;;10381604;28;20205;-78
2020/12/16 19:17:20;;;;;;;6.33;4.07;;;;;9.70;100718.00;;;;10396606;28;20246;-78
2020/12/16 19:22:22;;;;;;;4.77;3.73;;;;;9.70;100733.00;;;;10349671;28;20256;-78
2020/12/16 19:27:23;;;;;;;5.07;4.17;;;;;9.70;100734.00;;;;10367422;28;20275;-77
2020/12/16 19:32:28;;;;;;;5.37;3.97;;;;;9.80;100753.00;;;;10366476;28;20783;-77
2020/12/16 19:37:31;;;;;;;5.47;4.27;;;;;9.70;100752.00;;;;10414660;28;20312;-77
2020/12/16 19:42:38;;;;;;;5.07;4.37;;;;;9.60;100734.00;;;;10382015;28;20730;-77
2020/12/16 19:47:42;;;;;;;5.27;4.30;;;;;9.60;100727.00;;;;10390144;28;20340;-79
2020/12/16 19:52:53;;;;;;;5.23;4.47;;;;;9.60;100741.00;;;;10380683;28;20213;-78
2020/12/16 19:57:55;;;;;;;6.33;4.20;;;;;9.60;100734.00;;;;10396708;28;20252;-78
2020/12/16 20:02:56;;;;;;;4.83;4.10;;;;;9.60;100731.00;;;;10394219;28;20201;-79
2020/12/16 20:07:58;;;;;;;5.57;4.40;;;;;9.60;100742.00;;;;10394700;28;20296;-79
2020/12/16 20:13:00;;;;;;;5.50;4.90;;;;;9.60;100741.00;;;;10421795;28;20229;-78
2020/12/16 20:18:02;;;;;;;6.93;4.63;;;;;9.70;100747.00;;;;10384993;28;20198;-78
2020/12/16 20:23:03;;;;;;;5.10;4.60;;;;;9.70;100749.00;;;;10392208;28;20216;-78
2020/12/16 20:28:05;;;;;;;4.90;4.17;;;;;9.70;100755.00;;;;10421398;28;21105;-79
2020/12/16 20:33:06;;;;;;;4.90;4.10;;;;;9.70;100764.00;;;;10364935;28;20336;-79
2020/12/16 20:38:10;;;;;;;5.67;4.43;;;;;9.80;100775.00;;;;10362949;28;20265;-79
2020/12/16 20:43:11;;;;;;;4.20;3.80;;;;;9.80;100781.00;;;;10396561;28;20772;-78
2020/12/16 20:48:13;;;;;;;5.47;3.87;;;;;9.70;100779.00;;;;10362314;28;20202;-79
2020/12/16 20:53:14;;;;;;;4.97;4.47;;;;;9.70;100770.00;;;;10478538;28;20221;-79
2020/12/16 20:58:16;;;;;;;4.47;4.07;;;;;9.70;100779.00;;;;10441696;28;20197;-79
2020/12/16 21:03:17;;;;;;;4.90;3.90;;;;;9.70;100782.00;;;;10420778;28;20193;-79
2020/12/16 21:08:19;;;;;;;8.20;3.60;;;;;9.70;100774.00;;;;10415325;28;20202;-79
2020/12/16 21:13:21;;;;;;;5.23;4.13;;;;;9.70;100770.00;;;;10443730;28;20210;-79
2020/12/16 21:18:22;;;;;;;4.70;3.80;;;;;9.70;100767.00;;;;10419168;28;20236;-79
2020/12/16 21:23:24;;;;;;;5.17;4.10;;;;;9.70;100761.00;;;;10441852;28;20194;-80
2020/12/16 21:28:27;;;;;;;4.27;3.77;;;;;9.70;100766.00;;;;10429619;28;20228;-80
2020/12/16 21:33:28;;;;;;;4.67;3.23;;;;;9.70;100766.00;;;;10420984;28;20210;-79
2020/12/16 21:38:29;;;;;;;4.33;3.33;;;;;9.70;100767.00;;;;10451055;28;20273;-79
2020/12/16 21:43:31;;;;;;;6.80;5.30;;;;;9.70;100761.00;;;;10448009;28;20251;-79
2020/12/16 21:48:33;;;;;;;3.57;3.23;;;;;9.80;100756.00;;;;10446959;28;20198;-80
2020/12/16 21:53:34;;;;;;;3.80;3.33;;;;;9.80;100754.00;;;;10441328;28;20300;-78
2020/12/16 21:58:36;;;;;;;4.77;3.60;;;;;9.90;100743.00;;;;10425761;28;20679;-79
2020/12/16 22:03:38;;;;;;;4.57;3.17;;;;;9.90;100750.00;;;;10466731;28;20243;-79
2020/12/16 22:08:39;;;;;;;4.90;3.70;;;;;9.90;100745.00;;;;10463186;28;20193;-79
2020/12/16 22:13:46;;;;;;;4.30;3.80;;;;;9.90;100740.00;;;;10412325;28;20214;-79
2020/12/16 22:18:48;;;;;;;3.40;2.93;;;;;9.90;100734.00;;;;10445969;28;20220;-80
2020/12/16 22:23:50;;;;;;;4.17;3.70;;;;;9.90;100738.00;;;;10441282;28;20198;-80
2020/12/16 22:28:52;;;;;;;5.33;3.67;;;;;9.90;100732.00;;;;10441485;28;20204;-80
2020/12/16 22:33:54;;;;;;;4.97;3.77;;;;;9.80;100740.00;;;;10458067;28;20202;-78
2020/12/16 22:38:56;;;;;;;5.10;3.43;;;;;9.80;100746.00;;;;10444301;28;20249;-80
2020/12/16 22:43:57;;;;;;;4.50;3.83;;;;;9.90;100750.00;;;;10457978;28;20202;-79
2020/12/16 22:48:59;;;;;;;6.97;4.30;;;;;9.90;100759.00;;;;10440885;28;20277;-79
2020/12/16 22:54:00;;;;;;;4.50;3.83;;;;;9.90;100750.00;;;;10457036;28;20210;-79
2020/12/16 22:59:02;;;;;;;5.43;3.70;;;;;9.90;100765.00;;;;10478226;28;20629;-79
2020/12/16 23:04:04;;;;;;;5.43;3.80;;;;;9.90;100771.00;;;;10442012;28;20198;-79
2020/12/16 23:09:06;;;;;;;5.37;3.77;;;;;9.90;100773.00;;;;10515899;28;20192;-79
2020/12/16 23:14:08;;;;;;;5.07;3.40;;;;;9.90;100779.00;;;;10488155;28;20713;-79
2020/12/16 23:19:09;;;;;;;6.67;4.27;;;;;9.90;100774.00;;;;10455262;28;20202;-79
2020/12/16 23:24:11;;;;;;;5.27;4.43;;;;;10.00;100775.00;;;;10453397;28;20605;-78
2020/12/16 23:29:13;;;;;;;4.43;3.97;;;;;9.90;100772.00;;;;10416377;28;20198;-78
2020/12/16 23:34:14;;;;;;;7.07;3.67;;;;;9.90;100779.00;;;;10433187;28;20232;-79
2020/12/16 23:39:16;;;;;;;4.13;3.60;;;;;10.00;100772.00;;;;10452051;28;20201;-80
2020/12/16 23:44:17;;;;;;;6.70;4.07;;;;;10.00;100768.00;;;;10460114;28;20232;-79
2020/12/16 23:49:18;;;;;;;4.73;3.60;;;;;10.00;100782.00;;;;10451719;28;20201;-79
2020/12/16 23:54:20;;;;;;;4.43;3.87;;;;;10.10;100781.00;;;;10450792;28;20225;-79
2020/12/16 23:59:22;;;;;;;4.97;3.83;;;;;10.10;100785.00;;;;10453139;28;20668;-79
